createdAt,value
2019-06-20T00:00:56.322Z,11.70
2019-06-20T00:03:29.006Z,10.90
2019-06-20T00:06:01.476Z,12.70
2019-06-20T00:08:34.059Z,11.33
2019-06-20T00:11:06.566Z,10.50
2019-06-20T00:13:39.023Z,11.28
2019-06-20T00:16:12.608Z,10.13
2019-06-20T00:18:44.874Z,10.70
2019-06-20T00:21:17.966Z,11.18
2019-06-20T00:23:50.541Z,10.70
2019-06-20T00:26:22.674Z,10.63
2019-06-20T00:28:54.987Z,10.58
2019-06-20T00:31:27.254Z,10.75
2019-06-20T00:34:00.233Z,10.28
2019-06-20T00:36:32.609Z,10.25
2019-06-20T00:39:07.798Z,11.00
2019-06-20T00:41:40.418Z,10.78
2019-06-20T00:44:12.688Z,10.40
2019-06-20T00:46:44.860Z,11.25
2019-06-20T00:49:21.328Z,10.50
2019-06-20T00:51:53.705Z,11.10
2019-06-20T00:54:26.376Z,11.33
2019-06-20T00:56:58.646Z,11.48
2019-06-20T00:59:31.327Z,11.88
2019-06-20T01:02:03.695Z,12.55
2019-06-20T01:04:36.377Z,12.10
2019-06-20T01:07:09.066Z,12.85
2019-06-20T01:09:41.666Z,12.25
2019-06-20T01:12:14.006Z,13.20
2019-06-20T01:14:46.376Z,11.88
2019-06-20T01:17:18.854Z,12.40
2019-06-20T01:19:51.220Z,11.18
2019-06-20T01:22:25.027Z,11.60
2019-06-20T01:24:57.579Z,12.70
2019-06-20T01:27:30.185Z,11.95
2019-06-20T01:30:02.758Z,12.55
2019-06-20T01:32:36.558Z,12.13
2019-06-20T01:35:10.017Z,12.58
2019-06-20T01:37:42.127Z,12.30
2019-06-20T01:40:14.392Z,12.45
2019-06-20T01:42:46.668Z,12.15
2019-06-20T01:45:19.340Z,12.25
2019-06-20T01:47:51.846Z,12.10
2019-06-20T01:50:24.292Z,12.47
2019-06-20T01:52:56.793Z,12.37
2019-06-20T01:55:29.551Z,12.28
2019-06-20T01:58:02.120Z,12.10
2019-06-20T02:00:46.792Z,12.85
2019-06-20T02:03:20.387Z,13.95
2019-06-20T02:05:52.755Z,13.13
2019-06-20T02:08:25.027Z,11.63
2019-06-20T02:10:59.964Z,12.55
2019-06-20T02:13:32.538Z,12.10
2019-06-20T02:16:05.439Z,11.73
2019-06-20T02:18:37.592Z,11.88
2019-06-20T02:21:09.761Z,11.80
2019-06-20T02:23:42.224Z,13.38
2019-06-20T02:26:14.595Z,13.75
2019-06-20T02:28:46.969Z,13.08
2019-06-20T02:31:19.448Z,11.68
2019-06-20T02:33:51.825Z,11.50
2019-06-20T02:36:24.095Z,12.13
2019-06-20T02:38:56.565Z,11.43
2019-06-20T02:41:29.149Z,11.75
2019-06-20T02:44:01.929Z,11.43
2019-06-20T02:46:34.392Z,11.40
2019-06-20T02:49:06.973Z,11.25
2019-06-20T02:51:39.754Z,11.65
2019-06-20T02:54:12.413Z,12.20
2019-06-20T02:56:44.698Z,11.90
2019-06-20T02:59:17.172Z,11.68
2019-06-20T03:01:49.561Z,11.20
2019-06-20T03:04:22.123Z,11.55
2019-06-20T03:06:54.606Z,13.25
2019-06-20T03:09:27.686Z,11.12
2019-06-20T03:12:00.059Z,12.47
2019-06-20T03:14:44.978Z,11.48
2019-06-20T03:17:06.650Z,12.60
2019-06-20T03:19:39.121Z,11.68
2019-06-20T03:22:11.591Z,11.60
2019-06-20T03:24:44.186Z,11.30
2019-06-20T03:27:16.656Z,13.15
2019-06-20T03:29:48.914Z,12.58
2019-06-20T03:32:21.188Z,12.75
2019-06-20T03:34:53.561Z,11.57
2019-06-20T03:37:26.243Z,12.43
2019-06-20T03:39:58.400Z,12.98
2019-06-20T03:42:30.673Z,13.00
2019-06-20T03:45:03.049Z,13.40
2019-06-20T03:47:35.419Z,12.63
2019-06-20T03:50:08.515Z,12.07
2019-06-20T03:52:40.772Z,11.60
2019-06-20T03:55:13.807Z,10.75
2019-06-20T03:57:46.341Z,11.60
2019-06-20T04:00:21.891Z,10.38
2019-06-20T04:02:54.373Z,9.65
2019-06-20T04:05:28.881Z,10.00
2019-06-20T04:08:01.048Z,9.43
2019-06-20T04:10:34.038Z,9.18
2019-06-20T04:13:06.507Z,9.33
2019-06-20T04:15:38.987Z,9.00
2019-06-20T04:18:11.153Z,8.28
2019-06-20T04:20:43.618Z,9.40
2019-06-20T04:23:16.301Z,9.40
2019-06-20T04:25:48.671Z,9.00
2019-06-20T04:28:21.146Z,9.98
2019-06-20T04:30:53.638Z,9.80
2019-06-20T04:33:25.995Z,9.30
2019-06-20T04:35:58.464Z,8.90
2019-06-20T04:38:30.642Z,9.25
2019-06-20T04:41:03.215Z,8.83
2019-06-20T04:43:35.790Z,9.23
2019-06-20T04:46:09.799Z,9.95
2019-06-20T04:48:42.175Z,9.60
2019-06-20T04:51:14.652Z,10.05
2019-06-20T04:53:47.251Z,10.15
2019-06-20T04:56:19.607Z,8.43
2019-06-20T04:58:51.765Z,10.30
2019-06-20T05:01:24.234Z,9.33
2019-06-20T05:03:56.914Z,9.53
2019-06-20T05:06:29.191Z,9.50
2019-06-20T05:09:01.659Z,9.70
2019-06-20T05:11:35.359Z,8.63
2019-06-20T05:14:07.902Z,9.03
2019-06-20T05:16:41.132Z,9.33
2019-06-20T05:19:13.603Z,8.90
2019-06-20T05:21:45.771Z,9.30
2019-06-20T05:24:18.041Z,8.05
2019-06-20T05:26:50.418Z,8.70
2019-06-20T05:29:23.052Z,8.93
2019-06-20T05:31:55.164Z,9.10
2019-06-20T05:34:27.387Z,10.65
2019-06-20T05:36:59.597Z,8.88
2019-06-20T05:39:31.758Z,8.48
2019-06-20T05:42:04.644Z,8.28
2019-06-20T05:44:36.914Z,8.25
2019-06-20T05:47:13.492Z,8.58
2019-06-20T05:49:43.406Z,7.95
2019-06-20T05:52:15.975Z,8.90
2019-06-20T05:54:48.864Z,8.55
2019-06-20T05:57:21.138Z,7.78
2019-06-20T05:59:53.816Z,8.90
2019-06-20T06:02:26.930Z,8.83
2019-06-20T06:04:59.286Z,8.33
2019-06-20T06:07:31.855Z,7.80
2019-06-20T06:10:06.946Z,8.85
2019-06-20T06:12:39.146Z,7.47
2019-06-20T06:15:12.344Z,7.75
2019-06-20T06:17:44.924Z,7.30
2019-06-20T06:20:18.414Z,7.80
2019-06-20T06:22:51.093Z,7.70
2019-06-20T06:25:23.465Z,7.33
2019-06-20T06:27:56.244Z,8.45
2019-06-20T06:30:28.824Z,7.53
2019-06-20T06:33:01.213Z,7.10
2019-06-20T06:35:33.669Z,7.65
2019-06-20T06:38:06.041Z,7.08
2019-06-20T06:40:38.519Z,6.70
2019-06-20T06:43:11.196Z,6.40
2019-06-20T06:45:43.256Z,7.12
2019-06-20T06:48:15.545Z,6.65
2019-06-20T06:50:47.693Z,6.15
2019-06-20T06:53:20.737Z,6.30
2019-06-20T06:55:52.958Z,7.00
2019-06-20T06:58:25.457Z,7.00
2019-06-20T07:00:58.003Z,6.42
2019-06-20T07:03:30.929Z,6.45
2019-06-20T07:06:03.185Z,8.48
2019-06-20T07:08:36.454Z,7.60
2019-06-20T07:11:08.771Z,6.60
2019-06-20T07:13:40.890Z,7.33
2019-06-20T07:16:13.162Z,6.33
2019-06-20T07:18:45.627Z,8.43
2019-06-20T07:21:18.020Z,7.30
2019-06-20T07:23:50.474Z,7.10
2019-06-20T07:26:22.641Z,7.30
2019-06-20T07:28:54.913Z,6.85
2019-06-20T07:31:27.289Z,6.42
2019-06-20T07:33:59.758Z,6.33
2019-06-20T07:36:32.030Z,6.30
2019-06-20T07:39:06.144Z,6.55
2019-06-20T07:41:38.790Z,6.30
2019-06-20T07:44:11.094Z,6.30
2019-06-20T07:46:43.159Z,5.37
2019-06-20T07:49:15.526Z,6.28
2019-06-20T07:51:47.901Z,5.65
2019-06-20T07:54:20.620Z,5.50
2019-06-20T07:56:52.954Z,5.45
2019-06-20T07:59:25.523Z,5.72
2019-06-20T08:01:57.699Z,5.65
2019-06-20T08:04:30.574Z,5.50
2019-06-20T08:07:02.848Z,5.15
2019-06-20T08:09:44.710Z,5.40
2019-06-20T08:12:09.232Z,5.37
2019-06-20T08:14:41.666Z,5.58
2019-06-20T08:17:14.081Z,5.78
2019-06-20T08:19:46.653Z,5.97
2019-06-20T08:22:19.940Z,4.92
2019-06-20T08:24:53.803Z,5.40
2019-06-20T08:27:44.967Z,6.55
2019-06-20T08:30:18.058Z,5.33
2019-06-20T08:32:50.425Z,5.80
2019-06-20T08:35:24.240Z,6.47
2019-06-20T08:37:57.813Z,5.42
2019-06-20T08:40:33.247Z,5.47
2019-06-20T08:43:06.273Z,5.37
2019-06-20T08:45:41.064Z,4.90
2019-06-20T08:48:13.260Z,5.03
2019-06-20T08:50:45.628Z,6.50
2019-06-20T08:53:18.237Z,4.97
2019-06-20T08:55:50.998Z,5.12
2019-06-20T08:58:23.364Z,4.90
2019-06-20T09:00:57.111Z,4.80
2019-06-20T09:03:29.949Z,5.50
2019-06-20T09:08:34.900Z,5.60
2019-06-20T09:11:07.370Z,5.15
2019-06-20T09:13:40.682Z,4.85
2019-06-20T09:16:24.261Z,4.55
2019-06-20T09:18:46.841Z,4.33
2019-06-20T09:21:19.521Z,4.85
2019-06-20T09:23:52.900Z,6.78
2019-06-20T09:26:25.914Z,4.05
2019-06-20T09:28:59.351Z,5.17
2019-06-20T09:31:31.696Z,7.50
2019-06-20T09:34:05.555Z,5.78
2019-06-20T09:36:37.846Z,5.47
2019-06-20T09:39:10.428Z,4.33
2019-06-20T09:41:42.797Z,4.62
2019-06-20T09:44:15.063Z,3.60
2019-06-20T09:46:47.434Z,4.53
2019-06-20T09:49:19.615Z,4.40
2019-06-20T09:51:52.205Z,4.20
2019-06-20T09:54:24.869Z,3.87
2019-06-20T09:56:58.393Z,4.03
2019-06-20T09:59:30.738Z,4.15
2019-06-20T10:02:03.104Z,3.95
2019-06-20T10:04:35.780Z,3.90
2019-06-20T10:07:08.048Z,3.50
2019-06-20T10:09:40.325Z,4.40
2019-06-20T10:12:12.693Z,3.98
2019-06-20T10:14:46.327Z,4.28
2019-06-20T10:17:18.566Z,3.90
2019-06-20T10:19:52.024Z,4.62
2019-06-20T10:22:24.345Z,3.90
2019-06-20T10:24:57.938Z,3.98
2019-06-20T10:27:30.102Z,4.10
2019-06-20T10:30:13.822Z,4.03
2019-06-20T10:32:36.481Z,3.70
2019-06-20T10:35:09.177Z,3.60
2019-06-20T10:37:41.433Z,5.03
2019-06-20T10:40:14.716Z,4.20
2019-06-20T10:42:48.100Z,4.05
2019-06-20T10:45:23.499Z,4.65
2019-06-20T10:47:56.042Z,4.30
2019-06-20T10:50:28.618Z,3.80
2019-06-20T10:53:00.799Z,3.77
2019-06-20T10:55:33.563Z,4.95
2019-06-20T10:58:05.830Z,4.08
2019-06-20T11:00:37.904Z,4.62
2019-06-20T11:03:10.781Z,4.40
2019-06-20T11:05:43.833Z,4.55
2019-06-20T11:08:16.145Z,4.55
2019-06-20T11:10:49.288Z,3.70
2019-06-20T11:13:21.598Z,4.40
2019-06-20T11:15:54.281Z,4.10
2019-06-20T11:18:26.445Z,4.80
2019-06-20T11:20:59.036Z,4.20
2019-06-20T11:23:31.599Z,3.83
2019-06-20T11:26:03.975Z,4.67
2019-06-20T11:28:37.681Z,4.53
2019-06-20T11:31:10.458Z,4.17
2019-06-20T11:33:44.085Z,4.17
2019-06-20T11:36:16.647Z,4.10
2019-06-20T11:38:49.240Z,4.22
2019-06-20T11:41:21.477Z,4.12
2019-06-20T11:43:53.650Z,4.40
2019-06-20T11:46:25.712Z,4.20
2019-06-20T11:48:57.980Z,3.87
2019-06-20T11:51:30.248Z,4.10
2019-06-20T11:54:02.928Z,4.35
2019-06-20T11:56:35.300Z,4.90
2019-06-20T11:59:07.683Z,4.45
2019-06-20T12:01:41.230Z,4.72
2019-06-20T12:04:13.953Z,4.85
2019-06-20T12:06:47.167Z,4.33
2019-06-20T12:09:19.726Z,4.53
2019-06-20T12:11:52.196Z,4.30
2019-06-20T12:14:24.673Z,4.40
2019-06-20T12:16:56.736Z,4.28
2019-06-20T12:19:30.234Z,3.90
2019-06-20T12:22:02.562Z,4.15
2019-06-20T12:24:34.877Z,4.17
2019-06-20T12:27:07.245Z,3.95
2019-06-20T12:29:40.592Z,4.67
2019-06-20T12:32:13.015Z,4.75
2019-06-20T12:34:46.531Z,4.70
2019-06-20T12:37:19.805Z,3.80
2019-06-20T12:39:51.988Z,4.05
2019-06-20T12:42:24.547Z,3.75
2019-06-20T12:44:57.025Z,3.98
2019-06-20T12:47:29.398Z,4.10
2019-06-20T12:50:01.880Z,4.33
2019-06-20T12:52:34.242Z,4.00
2019-06-20T12:55:08.474Z,4.50
2019-06-20T12:57:42.103Z,4.58
2019-06-20T13:00:15.566Z,3.85
2019-06-20T13:02:48.037Z,4.55
2019-06-20T13:05:22.043Z,4.53
2019-06-20T13:07:54.925Z,4.67
2019-06-20T13:10:27.515Z,4.33
2019-06-20T13:13:00.096Z,4.40
2019-06-20T13:15:32.555Z,4.78
2019-06-20T13:18:04.829Z,4.22
2019-06-20T13:20:38.807Z,3.98
2019-06-20T13:23:10.795Z,3.98
2019-06-20T13:25:44.496Z,4.20
2019-06-20T13:28:16.771Z,4.35
2019-06-20T13:30:52.020Z,4.70
2019-06-20T13:33:22.975Z,5.97
2019-06-20T13:35:55.632Z,5.10
2019-06-20T13:38:27.690Z,4.40
2019-06-20T13:40:59.958Z,4.70
2019-06-20T13:43:32.337Z,4.08
2019-06-20T13:46:05.124Z,3.70
2019-06-20T13:48:38.962Z,4.00
2019-06-20T13:51:11.397Z,4.12
2019-06-20T13:53:44.317Z,4.20
2019-06-20T13:56:16.694Z,3.90
2019-06-20T13:58:49.021Z,3.95
2019-06-20T14:01:21.542Z,4.20
2019-06-20T14:03:54.337Z,8.65
2019-06-20T14:06:26.553Z,5.05
2019-06-20T14:08:58.920Z,8.93
2019-06-20T14:11:31.392Z,5.67
2019-06-20T14:14:03.894Z,4.50
2019-06-20T14:16:36.030Z,4.45
2019-06-20T14:19:08.620Z,5.53
2019-06-20T14:21:42.495Z,8.13
2019-06-20T14:24:15.502Z,7.20
2019-06-20T14:26:48.221Z,5.62
2019-06-20T14:29:20.558Z,5.62
2019-06-20T14:31:53.769Z,4.72
2019-06-20T14:34:26.036Z,4.67
2019-06-20T14:36:58.695Z,4.42
2019-06-20T14:39:34.133Z,4.92
2019-06-20T14:42:05.497Z,5.55
2019-06-20T14:44:38.166Z,4.85
2019-06-20T14:47:11.106Z,5.80
2019-06-20T14:49:43.730Z,10.13
2019-06-20T14:52:16.098Z,4.70
2019-06-20T14:54:49.878Z,4.58
2019-06-20T14:57:23.097Z,5.15
2019-06-20T14:59:55.468Z,4.80
2019-06-20T15:02:37.980Z,5.30
2019-06-20T15:05:02.380Z,4.85
2019-06-20T15:07:34.943Z,4.30
2019-06-20T15:10:07.930Z,5.20
2019-06-20T15:12:40.095Z,4.78
2019-06-20T15:15:13.299Z,4.42
2019-06-20T15:17:48.805Z,4.85
2019-06-20T15:20:20.077Z,4.85
2019-06-20T15:22:52.837Z,4.45
2019-06-20T15:25:25.950Z,4.95
2019-06-20T15:27:59.187Z,5.17
2019-06-20T15:30:31.610Z,5.17
2019-06-20T15:33:10.059Z,4.55
2019-06-20T15:35:37.992Z,4.87
2019-06-20T15:38:10.478Z,5.15
2019-06-20T15:40:43.056Z,4.90
2019-06-20T15:43:15.421Z,4.90
2019-06-20T15:45:48.984Z,5.62
2019-06-20T15:48:21.700Z,5.22
2019-06-20T15:50:54.171Z,5.25
2019-06-20T15:53:26.642Z,5.05
2019-06-20T15:55:58.816Z,4.67
2019-06-20T15:58:31.291Z,4.67
2019-06-20T16:01:03.762Z,4.90
2019-06-20T16:03:36.485Z,4.90
2019-06-20T16:06:08.639Z,5.35
2019-06-20T16:08:41.186Z,5.33
2019-06-20T16:11:13.565Z,5.30
2019-06-20T16:13:46.131Z,5.30
2019-06-20T16:16:18.710Z,6.45
2019-06-20T16:18:50.979Z,7.05
2019-06-20T16:21:23.245Z,4.67
2019-06-20T16:23:55.721Z,4.78
2019-06-20T16:26:29.012Z,4.70
2019-06-20T16:29:01.491Z,5.53
2019-06-20T16:31:33.963Z,8.08
2019-06-20T16:34:06.437Z,8.55
2019-06-20T16:36:39.219Z,7.75
2019-06-20T16:39:11.395Z,6.40
2019-06-20T16:41:43.967Z,5.95
2019-06-20T16:44:16.234Z,8.53
2019-06-20T16:46:48.611Z,6.30
2019-06-20T16:49:20.979Z,6.87
2019-06-20T16:51:54.171Z,7.20
2019-06-20T16:54:26.779Z,6.35
2019-06-20T16:56:59.432Z,8.28
2019-06-20T16:59:31.800Z,5.50
2019-06-20T17:02:04.170Z,5.65
2019-06-20T17:04:36.748Z,5.25
2019-06-20T17:07:08.915Z,5.40
2019-06-20T17:09:41.185Z,5.75
2019-06-20T17:12:13.611Z,5.58
2019-06-20T17:14:45.926Z,6.08
2019-06-20T17:17:18.198Z,5.80
2019-06-20T17:19:50.469Z,5.60
2019-06-20T17:22:23.045Z,6.00
2019-06-20T17:24:55.310Z,6.25
2019-06-20T17:27:27.793Z,7.42
2019-06-20T17:30:00.055Z,7.65
2019-06-20T17:32:32.553Z,6.17
2019-06-20T17:35:07.470Z,7.45
2019-06-20T17:37:40.557Z,8.73
2019-06-20T17:40:15.690Z,8.88
2019-06-20T17:42:47.963Z,9.13
2019-06-20T17:45:21.909Z,8.33
2019-06-20T17:47:58.856Z,8.98
2019-06-20T17:50:36.204Z,7.62
2019-06-20T17:53:09.224Z,7.40
2019-06-20T17:55:42.428Z,7.10
2019-06-20T17:58:14.785Z,7.80
2019-06-20T18:00:47.574Z,8.15
2019-06-20T18:03:20.359Z,6.62
2019-06-20T18:05:53.128Z,7.45
2019-06-20T18:08:25.607Z,7.53
2019-06-20T18:10:57.976Z,8.08
2019-06-20T18:13:30.449Z,7.05
2019-06-20T18:16:02.515Z,9.18
2019-06-20T18:18:34.993Z,9.53
2019-06-20T18:21:07.375Z,10.32
2019-06-20T18:23:39.896Z,11.63
2019-06-20T18:26:12.513Z,22.02
2019-06-20T18:28:44.885Z,29.95
2019-06-20T18:31:17.153Z,33.10
2019-06-20T18:33:49.429Z,31.45
2019-06-20T18:36:21.812Z,23.95
2019-06-20T18:38:54.992Z,21.77
2019-06-20T18:41:27.367Z,19.67
2019-06-20T18:43:59.730Z,18.77
2019-06-20T18:46:32.207Z,12.45
2019-06-20T18:49:04.782Z,16.75
2019-06-20T18:51:37.060Z,18.20
2019-06-20T18:54:09.952Z,11.65
2019-06-20T18:56:42.212Z,11.83
2019-06-20T18:59:14.594Z,12.18
2019-06-20T19:01:46.949Z,11.15
2019-06-20T19:04:19.531Z,11.53
2019-06-20T19:06:51.797Z,12.00
2019-06-20T19:09:24.883Z,14.18
2019-06-20T19:11:58.280Z,15.65
2019-06-20T19:14:30.657Z,14.65
2019-06-20T19:17:02.934Z,16.20
2019-06-20T19:19:35.202Z,16.15
2019-06-20T19:22:07.974Z,19.95
2019-06-20T19:24:40.446Z,34.10
2019-06-20T19:27:12.920Z,19.95
2019-06-20T19:29:45.403Z,50.78
2019-06-20T19:32:17.584Z,14.40
2019-06-20T19:35:01.289Z,15.78
2019-06-20T19:37:23.845Z,13.40
2019-06-20T19:39:56.213Z,11.70
2019-06-20T19:42:28.587Z,12.03
2019-06-20T19:45:00.853Z,17.12
2019-06-20T19:47:33.127Z,14.83
2019-06-20T19:50:07.852Z,13.60
2019-06-20T19:52:40.468Z,17.75
2019-06-20T19:55:13.678Z,12.82
2019-06-20T19:57:45.907Z,14.18
2019-06-20T20:00:20.020Z,12.98
2019-06-20T20:02:52.526Z,13.53
2019-06-20T20:05:25.155Z,12.75
2019-06-20T20:07:57.539Z,12.18
2019-06-20T20:10:46.903Z,13.58
2019-06-20T20:13:19.487Z,11.97
2019-06-20T20:15:51.702Z,12.18
2019-06-20T20:18:24.423Z,11.85
2019-06-20T20:20:56.901Z,12.75
2019-06-20T20:23:29.089Z,12.93
2019-06-20T20:26:01.439Z,10.88
2019-06-20T20:28:33.720Z,11.18
2019-06-20T20:31:06.189Z,11.90
2019-06-20T20:33:38.456Z,10.50
2019-06-20T20:36:24.051Z,11.20
2019-06-20T20:38:44.839Z,12.53
2019-06-20T20:41:17.309Z,11.97
2019-06-20T20:43:49.887Z,11.08
2019-06-20T20:46:22.054Z,10.78
2019-06-20T20:48:54.432Z,10.30
2019-06-20T20:51:28.638Z,10.10
2019-06-20T20:54:01.521Z,9.58
2019-06-20T20:56:33.901Z,8.50
2019-06-20T20:59:07.188Z,8.18
2019-06-20T21:01:39.927Z,8.60
2019-06-20T21:04:12.673Z,8.50
2019-06-20T21:06:45.025Z,7.55
2019-06-20T21:09:17.295Z,6.90
2019-06-20T21:11:49.457Z,8.18
2019-06-20T21:14:21.827Z,7.47
2019-06-20T21:16:54.921Z,6.67
2019-06-20T21:19:27.291Z,7.42
2019-06-20T21:21:59.659Z,9.43
2019-06-20T21:24:31.931Z,7.12
2019-06-20T21:27:04.512Z,7.05
2019-06-20T21:29:36.986Z,6.70
2019-06-20T21:32:09.370Z,7.45
2019-06-20T21:34:41.619Z,6.85
2019-06-20T21:37:13.998Z,8.43
2019-06-20T21:39:46.676Z,9.15
2019-06-20T21:42:23.641Z,8.70
2019-06-20T21:44:56.228Z,9.03
2019-06-20T21:47:28.706Z,9.68
2019-06-20T21:50:01.175Z,8.20
2019-06-20T21:52:33.579Z,8.20
2019-06-20T21:55:07.203Z,7.95
2019-06-20T21:57:39.599Z,8.28
2019-06-20T22:00:40.573Z,8.35
2019-06-20T22:03:14.991Z,8.33
2019-06-20T22:05:47.563Z,9.18
2019-06-20T22:08:19.732Z,8.75
2019-06-20T22:10:52.516Z,9.35
2019-06-20T22:13:24.583Z,9.43
2019-06-20T22:15:57.356Z,10.00
2019-06-20T22:18:29.533Z,10.70
2019-06-20T22:21:02.009Z,10.48
2019-06-20T22:23:34.178Z,11.05
2019-06-20T22:26:06.440Z,12.23
2019-06-20T22:28:38.912Z,11.75
2019-06-20T22:31:11.597Z,11.33
2019-06-20T22:33:44.375Z,12.50
2019-06-20T22:36:16.758Z,11.43
2019-06-20T22:38:49.222Z,12.45
2019-06-20T22:41:21.385Z,11.85
2019-06-20T22:43:53.759Z,11.88
2019-06-20T22:46:25.926Z,12.13
2019-06-20T22:48:58.405Z,12.23
2019-06-20T22:51:30.884Z,10.85
2019-06-20T22:54:03.798Z,10.45
2019-06-20T22:56:36.131Z,10.98
2019-06-20T22:59:08.397Z,10.68
2019-06-20T23:01:40.975Z,10.30
2019-06-20T23:04:14.881Z,10.58
2019-06-20T23:06:56.184Z,11.03
2019-06-20T23:09:21.067Z,10.45
2019-06-20T23:11:53.249Z,9.85
2019-06-20T23:14:25.397Z,9.70
2019-06-20T23:16:57.982Z,10.03
2019-06-20T23:19:30.447Z,10.38
2019-06-20T23:22:02.922Z,9.53
2019-06-20T23:24:35.188Z,9.23
2019-06-20T23:27:07.459Z,9.58
2019-06-20T23:29:39.934Z,9.65
2019-06-20T23:32:12.001Z,8.68
2019-06-20T23:34:44.163Z,9.58
2019-06-20T23:37:16.342Z,8.75
2019-06-20T23:39:48.912Z,8.50
2019-06-20T23:42:21.486Z,8.70
2019-06-20T23:44:53.658Z,8.10
2019-06-20T23:47:26.022Z,8.00
2019-06-20T23:49:58.499Z,7.62
2019-06-20T23:52:32.411Z,8.13
2019-06-20T23:55:06.875Z,7.97
2019-06-20T23:57:39.099Z,8.15
